Time;durP1;ratioP1;P1;durP2;ratioP2;P2;SDS_P1;SDS_P2;PMS_P1;PMS_P2;Temp;Humidity;BMP_temperature;BMP_pressure;BME280_temperature;BME280_humidity;BME280_pressure;Samples;Min_cycle;Max_cycle;Signal;HPM_P1;HPM_P2
2023/04/18 00:02:42;;;;;;;16.37;14.70;;;5.60;77.80;;;;;;6303624;28;20233;-83
2023/04/18 00:05:47;;;;;;;18.37;15.77;;;5.60;77.80;;;;;;6298829;28;20316;-81
2023/04/18 00:08:50;;;;;;;18.93;17.03;;;5.60;77.80;;;;;;6295866;28;20288;-81
2023/04/18 00:11:53;;;;;;;17.70;15.90;;;5.50;77.80;;;;;;6300261;28;20405;-82
2023/04/18 00:14:59;;;;;;;19.60;17.60;;;5.50;77.90;;;;;;6300928;28;20320;-83
2023/04/18 00:18:04;;;;;;;18.73;16.73;;;5.50;78.00;;;;;;6295535;28;20791;-82
2023/04/18 00:21:08;;;;;;;19.47;17.37;;;5.50;78.10;;;;;;6300523;28;20370;-83
2023/04/18 00:24:11;;;;;;;19.90;17.47;;;5.40;78.30;;;;;;6310108;28;20268;-84
2023/04/18 00:27:15;;;;;;;18.90;17.00;;;5.40;78.20;;;;;;6308945;28;20229;-82
2023/04/18 00:30:20;;;;;;;21.37;17.13;;;5.40;78.20;;;;;;6307564;28;20311;-83
2023/04/18 00:33:23;;;;;;;20.77;17.23;;;5.30;78.30;;;;;;6304763;28;20283;-80
2023/04/18 00:36:26;;;;;;;16.83;15.23;;;5.30;78.30;;;;;;6308794;28;20295;-80
2023/04/18 00:39:30;;;;;;;18.40;16.53;;;5.40;78.10;;;;;;6307710;28;20319;-85
2023/04/18 00:42:33;;;;;;;18.30;16.10;;;5.40;78.10;;;;;;6302987;28;20237;-83
2023/04/18 00:45:37;;;;;;;16.90;15.20;;;5.40;78.00;;;;;;6304753;28;20235;-81
2023/04/18 00:48:41;;;;;;;17.73;15.70;;;5.40;78.10;;;;;;6303017;28;20756;-83
2023/04/18 00:51:44;;;;;;;19.30;17.20;;;5.50;78.20;;;;;;6305125;28;21396;-82
2023/04/18 00:54:47;;;;;;;17.87;16.00;;;5.50;78.10;;;;;;6317548;28;20217;-79
2023/04/18 00:57:50;;;;;;;17.20;15.47;;;5.50;78.10;;;;;;6315563;28;20240;-79
2023/04/18 01:00:55;;;;;;;18.47;16.50;;;5.50;78.00;;;;;;6313272;28;20241;-79
2023/04/18 01:03:58;;;;;;;18.70;16.70;;;5.50;78.00;;;;;;6308848;28;20323;-80
2023/04/18 01:07:02;;;;;;;18.13;16.00;;;5.50;78.00;;;;;;6293329;28;20234;-83
2023/04/18 01:10:06;;;;;;;15.13;13.70;;;5.50;78.10;;;;;;6306939;28;20233;-80
2023/04/18 01:13:13;;;;;;;18.50;16.77;;;5.60;78.10;;;;;;6299810;28;20851;-84
2023/04/18 01:16:18;;;;;;;19.73;17.63;;;5.50;78.10;;;;;;6296044;28;20237;-81
2023/04/18 01:19:22;;;;;;;18.03;16.23;;;5.50;78.00;;;;;;6309901;28;20708;-82
2023/04/18 01:22:25;;;;;;;20.77;17.00;;;5.50;78.10;;;;;;6297003;28;20246;-79
2023/04/18 01:25:29;;;;;;;20.33;17.83;;;5.50;78.10;;;;;;6303056;28;20309;-84
2023/04/18 01:28:37;;;;;;;18.77;16.77;;;5.50;78.00;;;;;;6312517;28;20225;-83
2023/04/18 01:31:41;;;;;;;17.20;15.40;;;5.50;78.10;;;;;;6299723;28;20244;-82
2023/04/18 01:34:44;;;;;;;18.13;16.17;;;5.50;78.00;;;;;;6299498;28;20240;-81
2023/04/18 01:37:49;;;;;;;18.70;16.67;;;5.50;77.90;;;;;;6297484;28;20302;-84
2023/04/18 01:40:54;;;;;;;17.50;15.63;;;5.50;77.90;;;;;;6289544;28;20241;-84
2023/04/18 01:43:57;;;;;;;21.17;17.93;;;5.50;77.90;;;;;;6296165;28;20317;-81
2023/04/18 01:47:00;;;;;;;18.90;16.90;;;5.40;78.00;;;;;;6299187;28;20245;-82
2023/04/18 01:50:04;;;;;;;18.27;16.37;;;5.40;78.10;;;;;;6289865;28;20233;-82
2023/04/18 01:53:09;;;;;;;17.70;15.97;;;5.50;78.20;;;;;;6299470;28;20622;-83
2023/04/18 01:56:17;;;;;;;18.37;16.50;;;5.50;78.00;;;;;;6290520;28;20353;-83
2023/04/18 01:59:20;;;;;;;19.10;17.10;;;5.50;78.00;;;;;;6293745;28;20245;-80
2023/04/18 02:02:23;;;;;;;18.80;16.83;;;5.50;78.00;;;;;;6297999;28;20362;-85
2023/04/18 02:05:26;;;;;;;15.80;13.77;;;5.50;77.90;;;;;;6298480;28;20256;-78
2023/04/18 02:08:31;;;;;;;17.40;15.63;;;5.50;77.90;;;;;;6316551;28;20289;-80
2023/04/18 02:11:36;;;;;;;16.57;15.07;;;5.50;77.80;;;;;;6312940;28;20263;-80
2023/04/18 02:14:39;;;;;;;16.93;15.10;;;5.50;77.80;;;;;;6320008;28;20556;-80
2023/04/18 02:17:42;;;;;;;18.00;16.10;;;5.50;77.60;;;;;;6315591;28;20237;-77
2023/04/18 02:20:45;;;;;;;17.97;16.20;;;5.40;77.70;;;;;;6310290;28;20256;-77
2023/04/18 02:23:49;;;;;;;19.97;17.70;;;5.30;77.70;;;;;;6317471;28;20540;-78
2023/04/18 02:26:54;;;;;;;18.40;16.60;;;5.30;77.80;;;;;;6332089;28;20245;-79
2023/04/18 02:29:57;;;;;;;17.00;15.27;;;5.30;77.90;;;;;;6317134;28;20307;-82
2023/04/18 02:33:00;;;;;;;18.30;16.50;;;5.30;78.00;;;;;;6307672;28;20233;-78
2023/04/18 02:36:04;;;;;;;17.63;15.77;;;5.30;77.90;;;;;;6286443;28;21009;-82
2023/04/18 02:39:07;;;;;;;19.13;15.77;;;5.30;78.10;;;;;;6284700;28;20225;-79
2023/04/18 02:42:14;;;;;;;17.37;15.63;;;5.40;78.00;;;;;;6294455;28;20234;-80
2023/04/18 02:45:18;;;;;;;17.30;15.60;;;5.50;78.00;;;;;;6298142;28;20243;-82
2023/04/18 02:48:21;;;;;;;17.50;15.80;;;5.50;78.00;;;;;;6290430;28;20244;-82
2023/04/18 02:51:25;;;;;;;17.40;15.70;;;5.50;77.80;;;;;;6292750;28;20252;-82
2023/04/18 02:54:28;;;;;;;15.83;14.23;;;5.60;77.50;;;;;;6302452;28;20836;-82
2023/04/18 02:57:32;;;;;;;16.07;14.47;;;5.60;77.30;;;;;;6311244;28;20232;-81
2023/04/18 03:00:36;;;;;;;18.00;16.20;;;5.60;77.50;;;;;;6282263;28;20282;-82
2023/04/18 03:03:39;;;;;;;16.23;14.67;;;5.50;77.50;;;;;;6293241;28;20229;-85
2023/04/18 03:06:42;;;;;;;17.63;15.93;;;5.60;77.60;;;;;;6292130;28;20226;-82
2023/04/18 03:09:45;;;;;;;17.30;15.63;;;5.60;77.60;;;;;;6285930;28;20225;-84
2023/04/18 03:12:50;;;;;;;18.17;16.27;;;5.60;77.50;;;;;;6294856;28;20317;-79
2023/04/18 03:15:53;;;;;;;17.03;15.33;;;5.60;77.50;;;;;;6298175;28;20233;-80
2023/04/18 03:18:56;;;;;;;18.97;17.07;;;5.60;77.50;;;;;;6293182;28;20749;-82
2023/04/18 03:21:59;;;;;;;17.47;15.77;;;5.60;77.30;;;;;;6304976;28;20253;-82
2023/04/18 03:25:02;;;;;;;19.87;15.70;;;5.70;77.10;;;;;;6300031;28;20229;-82
2023/04/18 03:28:07;;;;;;;18.40;16.53;;;5.70;77.00;;;;;;6292994;28;20309;-83
2023/04/18 03:31:10;;;;;;;16.30;14.80;;;5.70;77.00;;;;;;6292275;28;20751;-78
2023/04/18 03:34:13;;;;;;;15.67;14.07;;;5.70;76.80;;;;;;6277471;28;20242;-80
2023/04/18 03:37:17;;;;;;;18.33;16.53;;;5.70;76.70;;;;;;6274594;28;20896;-76
2023/04/18 03:40:21;;;;;;;16.40;14.80;;;5.70;76.70;;;;;;6296002;28;20236;-82
2023/04/18 03:43:26;;;;;;;17.17;15.37;;;5.80;76.60;;;;;;6278437;28;20245;-81
2023/04/18 03:46:29;;;;;;;18.27;15.93;;;5.80;76.50;;;;;;6277565;28;20234;-82
2023/04/18 03:49:32;;;;;;;16.60;14.90;;;5.80;76.40;;;;;;6274529;28;20241;-80
2023/04/18 03:52:35;;;;;;;16.80;15.10;;;5.80;76.10;;;;;;6276918;28;20234;-79
2023/04/18 03:55:39;;;;;;;16.63;14.93;;;5.80;75.90;;;;;;6288763;28;20613;-81
2023/04/18 03:58:43;;;;;;;15.57;14.07;;;5.80;76.00;;;;;;6285849;28;20236;-80
2023/04/18 04:01:46;;;;;;;15.63;14.03;;;5.80;76.20;;;;;;6285427;28;20233;-80
2023/04/18 04:04:50;;;;;;;15.67;14.00;;;5.80;76.10;;;;;;6288401;28;20308;-82
2023/04/18 04:07:53;;;;;;;16.10;14.40;;;5.80;76.10;;;;;;6282511;28;20221;-80
2023/04/18 04:10:56;;;;;;;18.03;14.80;;;5.80;76.20;;;;;;6287035;28;20233;-82
2023/04/18 04:14:01;;;;;;;15.50;13.90;;;5.80;76.10;;;;;;6292973;28;20232;-80
2023/04/18 04:17:05;;;;;;;16.83;15.10;;;5.70;75.90;;;;;;6285344;28;20237;-81
2023/04/18 04:20:09;;;;;;;15.73;14.20;;;5.70;76.10;;;;;;6289898;28;20737;-80
2023/04/18 04:23:12;;;;;;;20.57;15.33;;;5.70;76.30;;;;;;6286510;28;20225;-81
2023/04/18 04:26:15;;;;;;;16.27;14.73;;;5.70;76.10;;;;;;6284497;28;20245;-81
2023/04/18 04:29:20;;;;;;;17.90;16.07;;;5.70;76.10;;;;;;6291187;28;20846;-82
2023/04/18 04:32:23;;;;;;;15.77;14.00;;;5.70;76.00;;;;;;6312986;28;20295;-77
2023/04/18 04:35:27;;;;;;;16.97;15.27;;;5.70;75.90;;;;;;6312277;28;20248;-77
2023/04/18 04:38:30;;;;;;;16.80;15.03;;;5.70;75.70;;;;;;6300046;28;20221;-78
2023/04/18 04:41:36;;;;;;;16.50;14.83;;;5.70;75.80;;;;;;6316869;28;20243;-78
2023/04/18 04:44:41;;;;;;;17.00;14.63;;;5.70;75.70;;;;;;6303349;28;20233;-82
2023/04/18 04:47:44;;;;;;;17.47;15.57;;;5.60;75.80;;;;;;6286848;28;20225;-82
2023/04/18 04:50:52;;;;;;;16.67;15.10;;;5.50;76.10;;;;;;6286108;28;20225;-81
2023/04/18 04:53:55;;;;;;;15.67;14.17;;;5.60;75.80;;;;;;6291934;28;20716;-81
2023/04/18 04:56:58;;;;;;;16.77;15.10;;;5.50;75.90;;;;;;6289217;28;20252;-82
2023/04/18 05:00:06;;;;;;;18.47;16.43;;;5.50;75.90;;;;;;6284604;28;20232;-82
2023/04/18 05:03:10;;;;;;;17.37;15.77;;;5.50;76.10;;;;;;6290264;28;20229;-83
2023/04/18 05:06:19;;;;;;;17.13;15.33;;;5.50;76.10;;;;;;6287625;28;20229;-80
2023/04/18 05:09:22;;;;;;;16.77;15.10;;;5.50;76.20;;;;;;6281707;28;20324;-77
2023/04/18 05:12:25;;;;;;;16.30;14.73;;;5.50;76.20;;;;;;6285263;28;20747;-80
2023/04/18 05:15:30;;;;;;;16.87;15.17;;;5.50;76.20;;;;;;6287064;28;20294;-81
2023/04/18 05:18:33;;;;;;;18.50;16.63;;;5.50;76.00;;;;;;6285272;28;20732;-78
2023/04/18 05:21:37;;;;;;;18.90;16.87;;;5.50;76.00;;;;;;6285726;28;20426;-80
2023/04/18 05:24:40;;;;;;;17.97;16.23;;;5.50;76.00;;;;;;6287025;28;20669;-80
2023/04/18 05:27:45;;;;;;;16.83;15.13;;;5.60;76.00;;;;;;6284239;28;20316;-81
2023/04/18 05:30:49;;;;;;;18.20;16.50;;;5.60;75.70;;;;;;6285351;28;20891;-81
2023/04/18 05:33:52;;;;;;;18.00;16.30;;;5.70;75.70;;;;;;6274126;28;20870;-79
2023/04/18 05:36:56;;;;;;;18.07;16.27;;;5.80;75.80;;;;;;6280479;28;20233;-80
2023/04/18 05:39:59;;;;;;;18.07;15.40;;;5.90;75.40;;;;;;6283102;28;20222;-82
2023/04/18 05:43:03;;;;;;;17.50;15.77;;;6.00;75.40;;;;;;6279093;28;20225;-79
2023/04/18 05:46:07;;;;;;;18.60;16.00;;;6.10;74.90;;;;;;6287383;28;20237;-81
2023/04/18 05:49:11;;;;;;;17.03;15.27;;;6.10;74.70;;;;;;6286869;28;20387;-80
2023/04/18 05:52:14;;;;;;;16.60;15.00;;;6.20;74.50;;;;;;6280981;28;20248;-80
2023/04/18 05:55:17;;;;;;;17.73;15.83;;;6.10;74.40;;;;;;6293623;28;20252;-81
2023/04/18 05:58:20;;;;;;;16.33;14.77;;;6.10;74.60;;;;;;6273385;28;20237;-79
2023/04/18 06:01:26;;;;;;;18.07;16.37;;;6.20;74.60;;;;;;6284668;28;20248;-81
2023/04/18 06:04:29;;;;;;;17.97;16.17;;;6.20;74.70;;;;;;6285177;28;20861;-80
2023/04/18 06:07:33;;;;;;;17.77;15.30;;;6.40;74.40;;;;;;6284055;28;20232;-78
2023/04/18 06:10:36;;;;;;;18.63;15.33;;;6.60;73.90;;;;;;6290953;28;20307;-78
2023/04/18 06:13:41;;;;;;;17.57;15.83;;;6.60;73.30;;;;;;6291560;28;20244;-81
2023/04/18 06:16:46;;;;;;;17.57;15.60;;;6.70;73.50;;;;;;6298130;28;20237;-80
2023/04/18 06:19:49;;;;;;;15.67;14.27;;;6.80;73.10;;;;;;6291733;28;20811;-79
2023/04/18 06:22:52;;;;;;;15.33;13.67;;;6.90;73.40;;;;;;6291926;28;20796;-80
2023/04/18 06:25:57;;;;;;;17.37;15.63;;;7.00;73.70;;;;;;6296890;28;20229;-79
2023/04/18 06:29:01;;;;;;;16.87;15.17;;;7.10;73.30;;;;;;6292251;28;20231;-79
2023/04/18 06:32:06;;;;;;;17.20;15.43;;;7.20;72.90;;;;;;6291548;28;20252;-83
2023/04/18 06:35:09;;;;;;;15.67;14.07;;;7.40;73.00;;;;;;6292872;28;20256;-81
2023/04/18 06:38:12;;;;;;;17.00;15.13;;;7.50;72.60;;;;;;6300603;28;20225;-79
2023/04/18 06:41:16;;;;;;;15.50;14.10;;;7.60;72.40;;;;;;6299710;28;20248;-81
2023/04/18 06:44:19;;;;;;;16.83;14.87;;;7.60;71.70;;;;;;6302875;28;20877;-80
2023/04/18 06:47:23;;;;;;;16.47;14.73;;;7.70;71.10;;;;;;6290365;28;20245;-80
2023/04/18 06:50:27;;;;;;;15.07;13.63;;;7.80;70.70;;;;;;6287473;28;20245;-80
2023/04/18 06:53:30;;;;;;;15.37;14.03;;;7.80;70.70;;;;;;6284164;28;20236;-79
2023/04/18 06:56:33;;;;;;;16.43;13.77;;;7.80;70.80;;;;;;6301315;28;20229;-82
2023/04/18 06:59:40;;;;;;;15.83;14.20;;;7.80;70.40;;;;;;6278978;28;20237;-80
2023/04/18 07:02:44;;;;;;;14.30;12.17;;;8.00;70.10;;;;;;6285946;28;20261;-81
2023/04/18 07:05:49;;;;;;;15.17;13.67;;;8.00;70.10;;;;;;6290887;28;20237;-80
2023/04/18 07:08:54;;;;;;;14.17;12.87;;;8.10;69.90;;;;;;6286628;28;20591;-82
2023/04/18 07:11:57;;;;;;;14.40;12.93;;;8.30;69.50;;;;;;6294696;28;20225;-81
2023/04/18 07:15:02;;;;;;;14.30;13.00;;;8.30;69.50;;;;;;6292141;28;20713;-80
2023/04/18 07:18:06;;;;;;;14.50;13.27;;;8.40;69.40;;;;;;6293617;28;20375;-80
2023/04/18 07:21:09;;;;;;;13.57;12.37;;;8.60;69.10;;;;;;6285339;28;20721;-81
2023/04/18 07:24:13;;;;;;;15.30;13.90;;;8.60;69.00;;;;;;6295616;28;20234;-84
2023/04/18 07:27:16;;;;;;;15.17;13.67;;;8.70;69.30;;;;;;6307423;28;20256;-82
2023/04/18 07:30:19;;;;;;;13.50;12.30;;;8.90;68.40;;;;;;6287780;28;20328;-81
2023/04/18 07:33:24;;;;;;;14.50;13.20;;;9.00;68.20;;;;;;6303633;28;20217;-77
2023/04/18 07:36:27;;;;;;;14.97;13.37;;;9.20;67.80;;;;;;6310141;28;20234;-78
2023/04/18 07:39:34;;;;;;;14.63;13.20;;;9.40;67.60;;;;;;6323602;28;20221;-78
2023/04/18 07:42:37;;;;;;;14.60;12.87;;;9.60;66.90;;;;;;6324388;28;20255;-78
2023/04/18 07:45:56;;;;;;;14.03;12.73;;;9.70;67.20;;;;;;6290093;28;20252;-77
2023/04/18 07:49:01;;;;;;;14.77;13.27;;;9.90;66.60;;;;;;6335534;27;20285;-78
2023/04/18 07:52:04;;;;;;;13.90;12.37;;;10.00;66.20;;;;;;6318349;28;20228;-76
2023/04/18 07:55:08;;;;;;;13.33;12.13;;;9.90;66.40;;;;;;6315150;28;20226;-79
2023/04/18 07:58:11;;;;;;;13.80;12.50;;;10.00;66.50;;;;;;6311883;28;20233;-75
2023/04/18 08:01:17;;;;;;;14.30;12.73;;;10.00;66.50;;;;;;6319634;28;20350;-77
2023/04/18 08:04:21;;;;;;;12.77;11.63;;;10.00;66.70;;;;;;6312222;28;20232;-81
2023/04/18 08:07:25;;;;;;;13.80;12.60;;;10.10;66.70;;;;;;6298117;28;20237;-82
2023/04/18 08:10:28;;;;;;;14.20;12.77;;;10.10;66.70;;;;;;6289594;28;20242;-81
2023/04/18 08:13:31;;;;;;;13.73;12.37;;;10.20;66.30;;;;;;6295904;28;20237;-81
2023/04/18 08:16:34;;;;;;;13.63;12.50;;;10.30;65.80;;;;;;6282687;28;20233;-79
2023/04/18 08:19:39;;;;;;;13.00;11.90;;;10.30;65.80;;;;;;6298419;28;20236;-81
2023/04/18 08:22:42;;;;;;;14.57;13.20;;;10.30;65.70;;;;;;6284277;28;20248;-80
2023/04/18 08:26:05;;;;;;;12.27;11.27;;;10.20;65.80;;;;;;6289198;28;20728;-79
2023/04/18 08:29:08;;;;;;;14.20;12.93;;;10.10;66.40;;;;;;6289972;28;20237;-82
2023/04/18 08:32:11;;;;;;;14.97;13.13;;;10.10;66.30;;;;;;6290802;28;20248;-81
2023/04/18 08:35:16;;;;;;;15.27;13.87;;;10.10;66.30;;;;;;6286344;28;20339;-80
2023/04/18 08:38:19;;;;;;;14.90;13.40;;;10.20;66.20;;;;;;6295759;28;20634;-82
2023/04/18 08:41:23;;;;;;;14.27;12.90;;;10.10;66.40;;;;;;6303036;28;20225;-75
2023/04/18 08:44:28;;;;;;;14.40;13.10;;;10.10;66.70;;;;;;6318199;28;20252;-78
2023/04/18 08:47:31;;;;;;;13.33;12.13;;;10.10;66.90;;;;;;6322980;28;20252;-76
2023/04/18 08:50:36;;;;;;;15.17;13.80;;;10.10;67.10;;;;;;6321734;28;20237;-76
2023/04/18 08:53:40;;;;;;;14.20;12.17;;;10.10;66.60;;;;;;6314952;28;20248;-77
2023/04/18 08:56:44;;;;;;;13.13;12.07;;;10.10;66.60;;;;;;6325343;28;20234;-76
2023/04/18 08:59:49;;;;;;;14.77;13.20;;;10.10;66.70;;;;;;6319250;28;20240;-78
2023/04/18 09:02:55;;;;;;;13.37;12.17;;;10.10;66.50;;;;;;6315521;28;20313;-76
2023/04/18 09:06:08;;;;;;;13.87;12.33;;;10.00;66.30;;;;;;6319598;28;20236;-75
2023/04/18 09:09:12;;;;;;;14.23;12.73;;;10.10;66.90;;;;;;6299629;28;20226;-82
2023/04/18 09:12:17;;;;;;;14.43;12.80;;;10.20;67.20;;;;;;6293721;28;20308;-77
2023/04/18 09:15:22;;;;;;;14.10;12.73;;;10.40;66.70;;;;;;6293818;28;20245;-82
2023/04/18 09:18:26;;;;;;;16.10;13.27;;;10.70;66.50;;;;;;6296970;28;20276;-77
2023/04/18 09:21:31;;;;;;;13.30;11.87;;;11.10;65.30;;;;;;6292098;28;20417;-79
2023/04/18 09:24:34;;;;;;;11.97;11.07;;;11.40;65.30;;;;;;6296342;28;20582;-79
2023/04/18 09:27:37;;;;;;;13.73;12.43;;;11.50;65.00;;;;;;6287621;28;20245;-80
2023/04/18 09:30:41;;;;;;;13.37;12.17;;;11.80;64.00;;;;;;6290010;28;20245;-82
2023/04/18 09:33:55;;;;;;;13.83;12.53;;;12.10;63.90;;;;;;6290335;28;20245;-83
2023/04/18 09:37:11;;;;;;;12.93;11.83;;;12.30;63.20;;;;;;6280106;28;20678;-81
2023/04/18 09:40:37;;;;;;;12.47;11.30;;;12.50;62.20;;;;;;6271824;28;20248;-82
2023/04/18 09:43:41;;;;;;;12.90;11.80;;;12.70;62.10;;;;;;6272048;28;20783;-81
2023/04/18 09:46:45;;;;;;;13.07;11.73;;;12.90;61.50;;;;;;6288129;28;20236;-81
2023/04/18 09:49:50;;;;;;;13.57;12.47;;;12.90;61.40;;;;;;6293712;28;20229;-81
2023/04/18 09:52:55;;;;;;;13.53;12.33;;;12.90;61.70;;;;;;6291630;28;20762;-81
2023/04/18 09:55:59;;;;;;;13.70;12.50;;;13.00;61.80;;;;;;6304917;28;20248;-77
2023/04/18 09:59:07;;;;;;;13.70;12.33;;;13.10;61.10;;;;;;6294245;28;20291;-83
2023/04/18 10:02:19;;;;;;;14.03;12.73;;;13.30;60.80;;;;;;6285139;28;20241;-81
2023/04/18 10:05:26;;;;;;;13.90;12.60;;;13.10;60.20;;;;;;6291569;28;20241;-80
2023/04/18 10:08:31;;;;;;;13.90;12.53;;;13.00;60.70;;;;;;6285290;28;20237;-84
2023/04/18 10:11:35;;;;;;;14.00;12.73;;;13.10;60.90;;;;;;6283616;28;20244;-84
2023/04/18 10:14:42;;;;;;;14.07;12.80;;;13.10;60.60;;;;;;6284874;28;20233;-79
2023/04/18 10:17:52;;;;;;;14.10;12.63;;;13.10;60.70;;;;;;6280243;28;20245;-81
2023/04/18 10:21:09;;;;;;;13.10;11.80;;;13.10;60.70;;;;;;6306940;28;20248;-80
2023/04/18 10:24:51;;;;;;;14.63;13.20;;;13.10;61.50;;;;;;6291851;28;20368;-83
2023/04/18 10:27:57;;;;;;;14.23;12.73;;;13.30;61.00;;;;;;6280907;28;20875;-80
2023/04/18 10:31:02;;;;;;;14.57;11.97;;;13.30;61.10;;;;;;6293205;28;20302;-81
2023/04/18 10:34:07;;;;;;;13.67;12.47;;;13.50;61.30;;;;;;6277609;28;20279;-81
2023/04/18 10:37:11;;;;;;;12.77;11.53;;;13.50;61.00;;;;;;6295738;28;20240;-81
2023/04/18 10:40:16;;;;;;;12.50;11.40;;;13.60;60.20;;;;;;6283353;28;20254;-83
2023/04/18 10:43:19;;;;;;;13.30;12.00;;;13.80;59.90;;;;;;6275664;28;20225;-79
2023/04/18 10:46:22;;;;;;;12.50;11.50;;;13.90;59.30;;;;;;6285911;28;20234;-81
2023/04/18 10:53:30;;;;;;;12.90;11.80;;;13.80;60.10;;;;;;6277014;28;20859;-82
2023/04/18 10:56:34;;;;;;;12.20;11.20;;;13.80;60.40;;;;;;6291194;28;20697;-84
2023/04/18 10:59:39;;;;;;;12.60;11.30;;;13.80;59.80;;;;;;6280348;28;20237;-83
2023/04/18 11:02:54;;;;;;;12.07;10.93;;;13.90;59.80;;;;;;6277891;28;20241;-83
2023/04/18 11:06:02;;;;;;;10.93;9.93;;;13.80;59.80;;;;;;6284596;28;20229;-83
2023/04/18 11:09:13;;;;;;;15.27;12.13;;;13.70;60.70;;;;;;6294267;28;20233;-83
2023/04/18 11:12:17;;;;;;;11.23;10.47;;;13.90;59.70;;;;;;6288726;28;20234;-81
2023/04/18 11:15:23;;;;;;;11.30;10.30;;;13.90;59.90;;;;;;6289108;28;20248;-78
2023/04/18 11:18:26;;;;;;;12.20;11.10;;;14.00;59.70;;;;;;6299824;28;20268;-83
2023/04/18 11:21:31;;;;;;;12.47;11.37;;;14.10;59.70;;;;;;6294657;28;20247;-80
2023/04/18 11:24:34;;;;;;;12.50;11.37;;;14.20;59.30;;;;;;6296230;28;20240;-81
2023/04/18 11:27:41;;;;;;;13.17;11.80;;;14.20;59.30;;;;;;6291136;28;20229;-84
2023/04/18 11:30:44;;;;;;;11.70;10.70;;;14.30;59.20;;;;;;6283916;28;20261;-81
2023/04/18 11:33:47;;;;;;;12.50;11.10;;;14.40;59.80;;;;;;6297436;28;20305;-80
2023/04/18 11:36:52;;;;;;;12.10;11.07;;;14.60;59.30;;;;;;6309678;28;20256;-79
2023/04/18 11:39:55;;;;;;;12.53;11.33;;;14.70;58.70;;;;;;6327752;28;20219;-79
2023/04/18 11:43:02;;;;;;;12.87;11.50;;;14.70;58.20;;;;;;6318900;28;20243;-79
2023/04/18 11:46:06;;;;;;;10.80;9.73;;;14.80;58.40;;;;;;6315868;28;20562;-84
2023/04/18 11:49:25;;;;;;;13.00;11.70;;;14.80;58.60;;;;;;6304787;28;20221;-84
2023/04/18 11:52:29;;;;;;;11.80;10.60;;;14.90;58.40;;;;;;6291249;28;20879;-83
2023/04/18 11:55:32;;;;;;;12.00;10.93;;;14.80;58.30;;;;;;6294186;28;20742;-82
2023/04/18 11:58:37;;;;;;;12.07;10.70;;;14.80;58.40;;;;;;6272261;28;20237;-80
2023/04/18 12:01:40;;;;;;;12.90;11.80;;;14.70;59.00;;;;;;6290039;28;20237;-83
2023/04/18 12:04:54;;;;;;;11.93;11.03;;;14.70;59.10;;;;;;6281883;28;20720;-82
2023/04/18 12:08:06;;;;;;;12.90;11.80;;;14.70;59.10;;;;;;6275158;28;20226;-80
2023/04/18 12:11:09;;;;;;;11.87;10.77;;;14.80;59.40;;;;;;6285965;28;20301;-81
2023/04/18 12:14:21;;;;;;;12.00;10.80;;;14.90;59.70;;;;;;6289705;28;20241;-81
2023/04/18 12:17:25;;;;;;;13.07;11.93;;;15.00;59.50;;;;;;6284933;28;20237;-79
2023/04/18 12:20:36;;;;;;;13.73;12.37;;;15.00;59.20;;;;;;6290129;28;20718;-80
2023/04/18 12:23:40;;;;;;;13.00;11.77;;;15.00;59.50;;;;;;6286989;28;20240;-82
2023/04/18 12:26:45;;;;;;;13.37;12.27;;;15.00;59.40;;;;;;6289825;28;20297;-83
2023/04/18 12:29:53;;;;;;;14.70;12.73;;;15.00;59.50;;;;;;6289593;28;20233;-83
2023/04/18 12:32:58;;;;;;;13.53;12.43;;;15.00;59.90;;;;;;6285635;28;20332;-81
2023/04/18 12:36:04;;;;;;;14.53;13.03;;;15.00;59.60;;;;;;6283449;28;20702;-78
2023/04/18 12:39:07;;;;;;;14.53;13.03;;;15.00;59.40;;;;;;6287432;28;20256;-82
2023/04/18 12:42:10;;;;;;;15.10;13.80;;;15.00;59.50;;;;;;6287601;28;20259;-84
2023/04/18 12:45:16;;;;;;;16.40;14.73;;;15.00;59.20;;;;;;6286631;28;20232;-80
2023/04/18 12:48:19;;;;;;;15.50;13.87;;;14.90;59.50;;;;;;6293454;28;20255;-82
2023/04/18 12:51:22;;;;;;;13.87;12.80;;;14.70;60.00;;;;;;6289820;28;20634;-80
2023/04/18 12:54:25;;;;;;;14.80;13.27;;;14.60;60.50;;;;;;6293343;28;20269;-82
2023/04/18 12:57:29;;;;;;;13.20;12.13;;;14.70;60.40;;;;;;6292919;28;20265;-82
2023/04/18 13:00:35;;;;;;;14.53;13.33;;;14.70;60.70;;;;;;6289233;28;20249;-81
2023/04/18 13:03:38;;;;;;;15.57;14.17;;;14.70;60.30;;;;;;6290623;28;20241;-81
2023/04/18 13:06:42;;;;;;;15.40;13.93;;;14.70;60.10;;;;;;6282773;28;20330;-80
2023/04/18 13:09:46;;;;;;;14.60;13.27;;;14.60;60.40;;;;;;6294066;28;20465;-79
2023/04/18 13:12:52;;;;;;;15.67;14.17;;;14.50;61.10;;;;;;6300032;28;20248;-80
2023/04/18 13:15:56;;;;;;;15.70;14.20;;;14.60;60.80;;;;;;6285456;28;20714;-83
2023/04/18 13:18:59;;;;;;;14.97;13.63;;;14.70;60.30;;;;;;6293945;28;20827;-85
2023/04/18 13:22:03;;;;;;;14.70;13.30;;;14.60;60.50;;;;;;6279827;28;20241;-80
2023/04/18 13:25:09;;;;;;;15.50;14.20;;;14.60;60.50;;;;;;6278327;28;20225;-79
2023/04/18 13:28:12;;;;;;;13.63;12.63;;;14.60;60.50;;;;;;6287464;28;20717;-80
2023/04/18 13:31:16;;;;;;;16.33;14.80;;;14.60;60.70;;;;;;6296065;28;21040;-80
2023/04/18 13:34:19;;;;;;;13.93;12.83;;;14.70;60.40;;;;;;6280580;28;20228;-80
2023/04/18 13:37:23;;;;;;;14.03;13.03;;;14.70;60.60;;;;;;6287433;28;20233;-81
2023/04/18 13:40:26;;;;;;;14.57;13.13;;;14.80;60.40;;;;;;6282596;28;20240;-82
2023/04/18 13:43:29;;;;;;;15.10;13.63;;;14.80;60.50;;;;;;6284240;28;20638;-82
2023/04/18 13:46:35;;;;;;;14.87;13.63;;;14.80;60.80;;;;;;6287962;28;20711;-79
2023/04/18 13:49:38;;;;;;;13.60;12.53;;;14.80;60.60;;;;;;6285134;28;20233;-80
2023/04/18 13:52:41;;;;;;;15.50;14.10;;;14.80;60.60;;;;;;6291452;28;20324;-81
2023/04/18 13:55:44;;;;;;;14.43;13.17;;;14.70;60.70;;;;;;6285048;28;20850;-79
2023/04/18 13:58:47;;;;;;;14.30;12.97;;;14.60;60.50;;;;;;6283962;28;20241;-80
2023/04/18 14:01:53;;;;;;;14.17;12.97;;;14.60;60.50;;;;;;6280883;28;20323;-82
2023/04/18 14:04:56;;;;;;;13.17;12.03;;;14.70;60.10;;;;;;6282736;28;20233;-79
2023/04/18 14:08:02;;;;;;;13.40;12.33;;;14.80;60.10;;;;;;6286302;28;20229;-78
2023/04/18 14:11:06;;;;;;;13.63;12.27;;;14.90;60.20;;;;;;6288935;28;20244;-79
2023/04/18 14:14:12;;;;;;;12.43;11.33;;;14.90;59.30;;;;;;6277429;28;20857;-81
2023/04/18 14:17:16;;;;;;;12.60;11.60;;;14.90;59.20;;;;;;6285322;28;20233;-82
2023/04/18 14:20:19;;;;;;;12.43;11.43;;;14.90;59.10;;;;;;6286138;28;20360;-83
2023/04/18 14:23:22;;;;;;;11.77;10.77;;;14.90;58.70;;;;;;6289251;28;20241;-84
2023/04/18 14:26:25;;;;;;;11.30;10.40;;;15.00;58.70;;;;;;6288478;28;20229;-81
2023/04/18 14:29:28;;;;;;;13.53;12.20;;;14.90;59.10;;;;;;6293745;28;20229;-81
2023/04/18 14:32:34;;;;;;;11.20;10.20;;;14.80;58.70;;;;;;6292660;28;20234;-80
2023/04/18 14:35:37;;;;;;;12.17;11.07;;;14.80;59.10;;;;;;6286286;28;20252;-80
2023/04/18 14:38:40;;;;;;;12.77;11.67;;;14.80;59.40;;;;;;6302742;28;20312;-81
2023/04/18 14:41:44;;;;;;;11.77;10.87;;;14.70;59.50;;;;;;6289638;28;20241;-81
2023/04/18 14:44:47;;;;;;;12.63;11.43;;;14.70;59.70;;;;;;6288045;28;20218;-81
2023/04/18 14:47:54;;;;;;;12.37;11.27;;;14.60;60.10;;;;;;6289466;28;20823;-85
2023/04/18 14:50:58;;;;;;;10.77;9.87;;;14.40;60.50;;;;;;6292689;28;20248;-79
2023/04/18 14:54:01;;;;;;;12.47;11.27;;;14.40;60.70;;;;;;6289326;28;20678;-80
2023/04/18 14:57:06;;;;;;;11.00;10.10;;;14.50;60.30;;;;;;6288621;28;20371;-82
2023/04/18 15:00:11;;;;;;;10.80;10.00;;;14.50;60.40;;;;;;6285861;28;20744;-79
2023/04/18 15:03:16;;;;;;;12.40;11.23;;;14.50;60.40;;;;;;6288901;28;20712;-79
2023/04/18 15:06:19;;;;;;;12.00;10.90;;;14.50;60.40;;;;;;6287432;28;21385;-83
2023/04/18 15:09:22;;;;;;;11.10;10.10;;;14.40;60.60;;;;;;6288906;28;20237;-79
2023/04/18 15:12:25;;;;;;;12.43;11.33;;;14.40;60.70;;;;;;6291075;28;20248;-80
2023/04/18 15:15:29;;;;;;;12.07;10.97;;;14.40;60.50;;;;;;6292754;28;20847;-81
2023/04/18 15:18:34;;;;;;;11.83;10.63;;;14.30;60.90;;;;;;6287578;28;20241;-80
2023/04/18 15:21:37;;;;;;;10.60;9.60;;;14.20;61.00;;;;;;6289488;28;20320;-81
2023/04/18 15:24:40;;;;;;;11.13;10.17;;;14.20;60.70;;;;;;6286425;28;20237;-79
2023/04/18 15:27:43;;;;;;;9.40;8.77;;;14.20;60.50;;;;;;6278491;27;20222;-80
2023/04/18 15:30:46;;;;;;;8.80;8.13;;;14.10;60.30;;;;;;6294237;28;20679;-81
2023/04/18 15:33:51;;;;;;;9.33;8.60;;;14.10;60.50;;;;;;6283606;28;20267;-84
2023/04/18 15:36:54;;;;;;;8.47;7.73;;;14.00;60.70;;;;;;6291403;28;20386;-83
2023/04/18 15:39:57;;;;;;;8.97;8.10;;;14.00;60.80;;;;;;6286257;28;20237;-80
2023/04/18 15:43:00;;;;;;;9.90;7.83;;;14.00;60.60;;;;;;6280474;28;20237;-80
2023/04/18 15:46:04;;;;;;;8.10;7.40;;;13.90;60.50;;;;;;6276920;28;20242;-82
2023/04/18 15:49:08;;;;;;;7.80;7.30;;;13.90;60.00;;;;;;6289442;28;20233;-79